Time;durP1;ratioP1;P1;durP2;ratioP2;P2;SDS_P1;SDS_P2;PMS_P1;PMS_P2;Temp;Humidity;BMP_temperature;BMP_pressure;BME280_temperature;BME280_humidity;BME280_pressure;Samples;Min_cycle;Max_cycle;Signal;HPM_P1;HPM_P2
2023/03/06 00:01:48;;;;;;;6.13;3.55;;;;;;;-0.72;80.79;97591.75;5067557;28;20504;-35
2023/03/06 00:04:14;;;;;;;6.95;3.22;;;;;;;-0.73;80.35;97590.94;5064972;28;20040;-35
2023/03/06 00:06:40;;;;;;;6.15;2.90;;;;;;;-0.74;80.50;97586.72;5069249;28;20055;-36
2023/03/06 00:09:07;;;;;;;7.22;2.88;;;;;;;-0.72;80.29;97591.75;5066409;28;20111;-35
2023/03/06 00:11:33;;;;;;;7.57;3.85;;;;;;;-0.76;80.20;97588.47;5068253;28;20055;-34
2023/03/06 00:13:58;;;;;;;2.55;1.65;;;;;;;-0.74;80.20;97599.47;5068965;28;20040;-35
2023/03/06 00:16:24;;;;;;;3.50;2.30;;;;;;;-0.81;80.10;97586.88;5068107;28;20045;-35
2023/03/06 00:18:51;;;;;;;8.88;2.80;;;;;;;-0.76;79.92;97591.00;5066263;28;20041;-35
2023/03/06 00:21:17;;;;;;;8.90;3.03;;;;;;;-0.78;79.79;97592.75;5066840;28;20043;-35
2023/03/06 00:23:43;;;;;;;4.28;2.30;;;;;;;-0.76;79.82;97587.63;5066827;28;20419;-36
2023/03/06 00:26:09;;;;;;;8.38;3.50;;;;;;;-0.81;79.60;97581.78;5068405;28;20394;-35
2023/03/06 00:28:36;;;;;;;6.22;2.15;;;;;;;-0.86;79.60;97579.34;5066615;28;20040;-35
2023/03/06 00:31:03;;;;;;;6.15;2.60;;;;;;;-0.89;79.32;97577.69;5049601;28;20423;-35
2023/03/06 00:33:29;;;;;;;6.80;2.70;;;;;;;-0.87;79.28;97578.50;5068767;28;20036;-35
2023/03/06 00:35:55;;;;;;;5.93;3.00;;;;;;;-0.86;79.05;97585.28;5065992;28;20048;-36
2023/03/06 00:38:21;;;;;;;5.00;2.00;;;;;;;-0.78;79.03;97589.34;5067855;28;20047;-35
2023/03/06 00:40:48;;;;;;;6.88;2.58;;;;;;;-0.76;78.79;97583.34;5067506;28;20143;-34
2023/03/06 00:43:14;;;;;;;5.32;2.25;;;;;;;-0.76;78.34;97588.47;5068609;28;20515;-35
2023/03/06 00:45:41;;;;;;;7.13;2.45;;;;;;;-0.75;78.43;97587.59;5066303;28;20097;-36
2023/03/06 00:48:08;;;;;;;7.15;2.40;;;;;;;-0.78;78.04;97584.25;5068287;28;20039;-35
2023/03/06 00:50:35;;;;;;;7.18;3.30;;;;;;;-0.83;77.80;97560.56;5067713;28;20215;-36
2023/03/06 00:53:00;;;;;;;6.82;2.95;;;;;;;-0.72;77.63;97594.31;5066997;28;21334;-36
2023/03/06 00:55:28;;;;;;;4.43;1.90;;;;;;;-0.75;77.65;97589.31;5067017;28;20044;-35
2023/03/06 00:57:54;;;;;;;6.78;2.90;;;;;;;-0.75;77.67;97594.41;5068597;28;20093;-35
2023/03/06 01:00:20;;;;;;;4.82;1.95;;;;;;;-0.83;77.66;97563.13;5047065;28;20045;-36
2023/03/06 01:02:48;;;;;;;5.63;1.87;;;;;;;-0.74;76.92;97589.28;5057590;28;20450;-35
2023/03/06 01:05:14;;;;;;;6.47;2.72;;;;;;;-0.79;77.29;97591.09;5065825;28;20290;-34
2023/03/06 01:07:40;;;;;;;4.22;2.45;;;;;;;-0.82;76.91;97592.84;5050508;28;20048;-35
2023/03/06 01:10:06;;;;;;;7.10;2.65;;;;;;;-0.77;77.23;97589.31;5050237;28;20402;-36
2023/03/06 01:12:32;;;;;;;3.25;1.88;;;;;;;-0.71;76.94;97589.19;5066471;28;20507;-35
2023/03/06 01:14:58;;;;;;;4.70;1.90;;;;;;;-0.70;77.00;97598.53;5068528;28;20047;-34
2023/03/06 01:17:24;;;;;;;4.82;2.03;;;;;;;-0.68;76.37;97596.75;5084002;28;20539;-36
2023/03/06 01:19:50;;;;;;;8.32;2.78;;;;;;;-0.73;76.34;97590.94;5048914;28;20456;-34
2023/03/06 01:22:16;;;;;;;4.95;2.15;;;;;;;-1.04;76.31;97528.75;5032506;28;20043;-36
2023/03/06 01:24:42;;;;;;;4.88;2.50;;;;;;;-0.67;76.04;97593.34;5064833;28;20079;-34
2023/03/06 01:27:08;;;;;;;3.75;1.92;;;;;;;-0.70;75.92;97592.59;5067002;28;20068;-34
2023/03/06 01:29:34;;;;;;;6.97;3.17;;;;;;;-0.77;75.79;97585.94;5067033;28;20048;-35
2023/03/06 01:32:00;;;;;;;5.70;2.08;;;;;;;-0.86;75.64;97584.44;5067024;28;20504;-36
2023/03/06 01:34:26;;;;;;;3.13;1.80;;;;;;;-0.86;75.63;97589.53;5067235;28;20558;-36
2023/03/06 01:36:52;;;;;;;4.25;2.38;;;;;;;-0.95;75.46;97587.22;5066632;28;20044;-36
2023/03/06 01:39:18;;;;;;;5.10;2.15;;;;;;;-1.14;75.41;97575.72;5065801;28;20064;-35
2023/03/06 01:41:45;;;;;;;7.72;2.60;;;;;;;-1.01;75.61;97593.28;5066128;28;20563;-35
2023/03/06 01:44:12;;;;;;;2.45;1.48;;;;;;;-0.94;75.58;97594.81;5048465;28;20095;-35
2023/03/06 01:46:43;;;;;;;4.60;2.63;;;;;;;-0.99;75.51;97595.78;5049118;28;20040;-35
2023/03/06 01:49:15;;;;;;;4.88;2.13;;;;;;;-0.98;75.48;97593.19;5068069;28;20033;-35
2023/03/06 01:51:59;;;;;;;6.45;2.50;;;;;;;-1.03;75.65;97597.56;5065445;28;20037;-35
2023/03/06 01:54:31;;;;;;;5.57;2.78;;;;;;;-1.02;75.50;97595.84;5066821;28;20097;-36
2023/03/06 01:57:18;;;;;;;6.10;2.30;;;;;;;-0.99;75.59;97605.97;5066348;28;20037;-35
2023/03/06 01:59:47;;;;;;;7.75;3.85;;;;;;;-1.09;75.50;97597.69;5069184;28;20032;-35
2023/03/06 02:02:13;;;;;;;3.85;1.40;;;;;;;-1.05;75.42;97606.97;5068482;28;20048;-36
2023/03/06 02:04:41;;;;;;;4.50;2.22;;;;;;;-1.12;75.76;97600.31;5069658;28;20041;-35
2023/03/06 02:07:07;;;;;;;5.85;2.67;;;;;;;-1.10;75.75;97601.09;5053810;28;20055;-35
2023/03/06 02:09:34;;;;;;;7.35;3.13;;;;;;;-1.28;75.92;97570.94;5070249;28;20766;-34
2023/03/06 02:12:02;;;;;;;6.28;2.92;;;;;;;-1.09;76.00;97600.25;5069393;28;20045;-34
2023/03/06 02:14:29;;;;;;;3.58;1.73;;;;;;;-1.08;76.22;97609.56;5053604;28;20066;-36
2023/03/06 02:16:54;;;;;;;5.43;2.60;;;;;;;-1.12;76.10;97614.78;5071400;28;20416;-34
2023/03/06 02:19:29;;;;;;;6.05;2.03;;;;;;;-1.14;76.52;97608.84;5069670;28;20127;-36
2023/03/06 02:21:55;;;;;;;6.50;2.97;;;;;;;-1.14;76.75;97608.84;5070776;28;20044;-35
2023/03/06 02:24:38;;;;;;;2.60;1.50;;;;;;;-1.33;76.62;97578.69;5069262;28;20139;-36
2023/03/06 02:27:06;;;;;;;3.08;1.65;;;;;;;-1.13;76.61;97610.53;5052961;28;20085;-36
2023/03/06 02:29:32;;;;;;;2.75;1.73;;;;;;;-1.21;77.01;97610.72;5070159;28;20044;-35
2023/03/06 02:32:01;;;;;;;5.47;2.13;;;;;;;-1.21;77.29;97613.25;5053493;28;20042;-35
2023/03/06 02:34:27;;;;;;;2.95;1.65;;;;;;;-1.18;77.41;97618.28;5086287;28;20040;-37
2023/03/06 02:36:59;;;;;;;4.70;2.22;;;;;;;-1.24;77.90;97608.22;5069661;28;20452;-35
2023/03/06 02:39:27;;;;;;;9.75;3.63;;;;;;;-1.25;77.85;97606.53;5068855;28;20537;-36
2023/03/06 02:41:53;;;;;;;4.07;2.40;;;;;;;-1.26;78.00;97604.03;5052536;28;20460;-37
2023/03/06 02:44:21;;;;;;;4.10;1.80;;;;;;;-1.25;78.50;97606.53;5051190;28;20491;-35
2023/03/06 02:46:47;;;;;;;7.05;2.47;;;;;;;-1.40;78.47;97582.22;5053013;28;20108;-36
2023/03/06 02:49:13;;;;;;;8.20;3.30;;;;;;;-1.31;78.70;97599.03;5053013;28;20032;-35
2023/03/06 02:51:39;;;;;;;3.53;1.80;;;;;;;-1.27;79.04;97607.44;5052222;28;20036;-36
2023/03/06 02:54:05;;;;;;;3.58;2.00;;;;;;;-1.23;78.98;97599.69;5070485;28;20055;-36
2023/03/06 02:56:31;;;;;;;4.72;2.45;;;;;;;-1.26;78.79;97601.50;5068574;28;20036;-35
2023/03/06 02:58:57;;;;;;;8.52;3.00;;;;;;;-1.29;79.13;97602.38;5070167;28;20055;-36
2023/03/06 03:01:24;;;;;;;5.80;2.05;;;;;;;-1.45;79.01;97580.63;5052850;28;20562;-36
2023/03/06 03:03:51;;;;;;;7.60;3.10;;;;;;;-1.31;79.48;97612.59;5084440;28;20037;-37
2023/03/06 03:06:17;;;;;;;6.53;2.67;;;;;;;-1.50;79.58;97577.34;5068398;28;20048;-35
2023/03/06 03:08:44;;;;;;;4.82;2.40;;;;;;;-1.22;79.45;97614.13;5051717;28;20065;-36
2023/03/06 03:11:11;;;;;;;8.60;3.20;;;;;;;-1.15;79.35;97615.66;5066702;28;20409;-36
2023/03/06 03:13:42;;;;;;;3.92;2.53;;;;;;;-1.18;79.45;97613.19;5063775;28;20508;-36
2023/03/06 03:16:17;;;;;;;8.65;3.10;;;;;;;-1.17;79.68;97608.94;5083012;28;20036;-35
2023/03/06 03:18:52;;;;;;;;;;;;;;;-1.14;79.80;97603.75;5068546;28;20036;-35
2023/03/06 03:21:20;;;;;;;3.78;2.13;;;;;;;-1.19;80.01;97608.13;5068998;28;19927;-36
2023/03/06 03:23:47;;;;;;;4.80;2.30;;;;;;;-1.20;80.37;97612.38;5050497;28;20119;-35
2023/03/06 03:26:16;;;;;;;6.80;3.15;;;;;;;-1.14;80.49;97609.69;5070325;28;20039;-36
2023/03/06 03:28:47;;;;;;;6.13;2.83;;;;;;;-1.16;80.49;97616.56;5049285;28;20105;-35
2023/03/06 03:31:16;;;;;;;4.65;2.13;;;;;;;-1.24;80.84;97618.41;5065641;28;20041;-35
2023/03/06 03:33:42;;;;;;;2.88;1.98;;;;;;;-1.40;81.20;97602.59;5037545;28;20040;-36
2023/03/06 03:36:09;;;;;;;4.97;2.55;;;;;;;-1.52;81.65;97586.72;5031495;28;20508;-36
2023/03/06 03:38:38;;;;;;;5.25;2.60;;;;;;;-1.34;81.94;97622.03;5061934;28;20052;-35
2023/03/06 03:41:04;;;;;;;3.05;1.73;;;;;;;-1.35;82.45;97627.97;5068877;28;20040;-35
2023/03/06 03:43:31;;;;;;;6.03;3.40;;;;;;;-1.39;82.53;97613.63;5067196;28;20156;-36
2023/03/06 03:45:58;;;;;;;4.97;2.20;;;;;;;-1.38;83.01;97626.34;5052129;28;20032;-35
2023/03/06 03:48:24;;;;;;;6.93;2.85;;;;;;;-1.43;83.45;97619.66;5068456;28;20127;-36
2023/03/06 03:50:50;;;;;;;7.60;3.03;;;;;;;-1.50;83.61;97623.19;5068499;28;20125;-36
2023/03/06 03:53:18;;;;;;;4.38;2.63;;;;;;;-1.90;83.62;97554.38;5066663;28;20054;-36
2023/03/06 03:55:47;;;;;;;6.85;3.15;;;;;;;-1.62;84.02;97624.25;5034349;28;20051;-37
2023/03/06 03:58:13;;;;;;;6.03;2.70;;;;;;;-1.63;84.44;97629.41;5051245;28;20036;-37
2023/03/06 04:00:39;;;;;;;8.13;3.20;;;;;;;-1.67;84.84;97626.06;5085139;28;20045;-37
2023/03/06 04:03:11;;;;;;;8.15;3.05;;;;;;;-1.65;84.87;97618.41;5082953;28;20071;-37
2023/03/06 04:05:41;;;;;;;7.32;2.63;;;;;;;-1.58;85.43;97628.44;5067954;28;20164;-35
2023/03/06 04:08:10;;;;;;;9.80;3.97;;;;;;;-1.55;85.39;97623.28;5069034;28;20044;-36
2023/03/06 04:10:40;;;;;;;9.48;3.30;;;;;;;-1.42;85.30;97621.34;5066185;28;20060;-36
2023/03/06 04:13:07;;;;;;;9.55;4.00;;;;;;;-1.41;85.29;97623.00;5033281;28;20040;-35
2023/03/06 04:15:33;;;;;;;8.75;3.55;;;;;;;-1.40;85.34;97617.03;5068025;28;20480;-36
2023/03/06 04:18:01;;;;;;;4.45;2.50;;;;;;;-1.37;85.43;97619.53;5051663;28;20166;-37
2023/03/06 04:20:29;;;;;;;9.70;3.33;;;;;;;-1.35;85.68;97622.88;5066622;28;20036;-36
2023/03/06 04:22:57;;;;;;;9.98;3.88;;;;;;;-1.43;85.61;97617.13;5065774;28;20064;-36
2023/03/06 04:25:23;;;;;;;5.28;2.67;;;;;;;-1.40;85.68;97630.63;5050241;28;20473;-35
2023/03/06 04:27:49;;;;;;;7.80;3.00;;;;;;;-1.43;85.80;97623.06;5069146;28;20106;-35
2023/03/06 04:30:16;;;;;;;7.38;3.53;;;;;;;-1.41;85.81;97620.44;5067095;28;20423;-36
2023/03/06 04:32:42;;;;;;;8.15;3.53;;;;;;;-1.38;85.97;97620.41;5050568;28;20044;-43
2023/03/06 04:35:08;;;;;;;6.05;2.53;;;;;;;-1.34;85.79;97627.13;5034760;28;20040;-36
2023/03/06 04:37:42;;;;;;;8.95;3.97;;;;;;;-1.37;85.64;97619.53;5050016;28;20040;-36
2023/03/06 04:40:23;;;;;;;8.70;3.72;;;;;;;-1.46;85.38;97602.72;5083608;28;20098;-37
2023/03/06 04:42:49;;;;;;;6.32;3.28;;;;;;;-1.33;85.36;97626.25;5067974;28;20041;-35
2023/03/06 04:45:15;;;;;;;4.63;2.35;;;;;;;-1.27;85.37;97628.69;5068347;28;20151;-35
2023/03/06 04:47:41;;;;;;;10.40;3.45;;;;;;;-1.32;84.96;97620.28;5067349;28;20559;-36
2023/03/06 04:50:08;;;;;;;5.28;2.65;;;;;;;-1.30;84.84;97621.91;5042052;28;20032;-35
2023/03/06 04:52:34;;;;;;;6.63;3.13;;;;;;;-1.22;84.79;97621.78;5092450;28;20036;-36
2023/03/06 04:55:00;;;;;;;6.47;2.90;;;;;;;-1.18;84.52;97625.09;5065807;28;20090;-36
2023/03/06 04:57:26;;;;;;;5.97;2.20;;;;;;;-1.32;84.25;97603.28;5068522;28;20583;-36
2023/03/06 04:59:52;;;;;;;7.70;2.60;;;;;;;-1.20;84.19;97630.22;5068000;28;20047;-36
2023/03/06 05:02:17;;;;;;;4.93;2.55;;;;;;;-1.20;84.10;97624.31;5066106;28;20050;-35
2023/03/06 05:04:43;;;;;;;4.68;2.38;;;;;;;-1.16;83.81;97628.47;5064526;28;20135;-37
2023/03/06 05:07:09;;;;;;;8.27;3.30;;;;;;;-1.15;84.08;97632.69;5066164;28;20052;-35
2023/03/06 05:09:35;;;;;;;6.07;3.38;;;;;;;-1.00;83.67;97624.72;5068485;28;20044;-37
2023/03/06 05:12:02;;;;;;;4.80;2.40;;;;;;;-0.98;83.45;97630.59;5067705;28;20071;-36
2023/03/06 05:14:29;;;;;;;5.47;2.72;;;;;;;-0.91;83.05;97635.56;5066783;28;20420;-36
2023/03/06 05:16:55;;;;;;;3.15;1.90;;;;;;;-1.13;82.63;97600.34;5068460;28;20567;-37
2023/03/06 05:19:21;;;;;;;5.57;2.90;;;;;;;-0.98;82.26;97633.16;5065301;28;20469;-37
2023/03/06 05:21:47;;;;;;;5.22;3.13;;;;;;;-0.94;82.11;97633.06;5066742;28;20416;-36
2023/03/06 05:24:13;;;;;;;7.88;3.30;;;;;;;-0.80;81.83;97634.47;5050293;28;20044;-39
2023/03/06 05:26:39;;;;;;;7.18;3.15;;;;;;;-0.71;81.75;97631.72;5065348;28;20052;-37
2023/03/06 05:29:05;;;;;;;5.68;3.17;;;;;;;-0.63;81.51;97635.75;5064173;28;20067;-36
2023/03/06 05:31:31;;;;;;;5.10;3.15;;;;;;;-0.50;81.24;97641.44;5067926;28;20036;-36
2023/03/06 05:33:57;;;;;;;6.63;3.65;;;;;;;-0.73;80.31;97601.13;5069809;28;20117;-35
2023/03/06 05:36:24;;;;;;;10.70;3.00;;;;;;;-0.60;80.29;97635.72;5052153;28;20083;-37
2023/03/06 05:38:50;;;;;;;4.38;2.30;;;;;;;-0.72;80.05;97642.78;5070022;28;20041;-36
2023/03/06 05:41:16;;;;;;;4.80;2.47;;;;;;;-0.77;79.91;97642.91;5071009;28;20045;-36
2023/03/06 05:43:41;;;;;;;5.93;2.75;;;;;;;-0.70;79.51;97648.72;5070716;28;20037;-36
2023/03/06 05:46:08;;;;;;;3.67;2.42;;;;;;;-0.69;79.34;97647.84;5050655;28;20074;-36
2023/03/06 05:48:34;;;;;;;5.25;2.60;;;;;;;-0.49;78.86;97638.00;5067899;28;20040;-36
2023/03/06 05:51:01;;;;;;;7.53;3.08;;;;;;;-0.53;78.40;97650.00;5070409;28;20033;-36
2023/03/06 05:53:28;;;;;;;11.02;3.83;;;;;;;-0.51;78.13;97650.81;5070934;28;20048;-36
2023/03/06 05:56:01;;;;;;;5.18;2.40;;;;;;;-0.70;78.24;97606.19;5071864;28;20037;-36
2023/03/06 05:58:27;;;;;;;8.35;3.58;;;;;;;-0.40;78.01;97652.25;5069541;28;20050;-37
2023/03/06 06:00:53;;;;;;;6.30;3.15;;;;;;;-0.30;77.35;97656.28;5070424;28;20055;-37
2023/03/06 06:03:20;;;;;;;5.65;2.67;;;;;;;-0.26;76.99;97651.06;5067369;28;20122;-36
2023/03/06 06:05:45;;;;;;;6.18;2.95;;;;;;;-0.16;76.59;97651.69;5083664;28;20044;-35
2023/03/06 06:08:11;;;;;;;5.68;2.55;;;;;;;0.10;76.32;97659.56;5075107;28;20047;-36
2023/03/06 06:10:38;;;;;;;6.38;2.55;;;;;;;0.22;75.16;97658.38;5070405;28;20051;-37
2023/03/06 06:13:03;;;;;;;3.67;2.47;;;;;;;0.27;75.17;97661.66;5071670;28;20078;-37
2023/03/06 06:15:29;;;;;;;5.80;2.85;;;;;;;0.24;74.89;97664.31;5069151;28;20060;-38
2023/03/06 06:17:56;;;;;;;6.68;2.45;;;;;;;0.22;74.27;97659.22;5052439;28;20048;-37
2023/03/06 06:20:23;;;;;;;4.13;2.15;;;;;;;0.45;73.76;97661.19;5069205;28;20072;-35
2023/03/06 06:22:49;;;;;;;3.78;1.98;;;;;;;0.41;73.30;97660.44;5067336;28;20159;-36
2023/03/06 06:25:15;;;;;;;3.58;1.20;;;;;;;0.44;73.07;97662.06;5068749;28;20567;-36
2023/03/06 06:27:41;;;;;;;2.97;1.92;;;;;;;0.39;73.30;97658.78;5085678;28;20086;-37
2023/03/06 06:30:09;;;;;;;5.32;2.15;;;;;;;0.53;72.67;97654.13;5068020;28;20542;-37
2023/03/06 06:32:35;;;;;;;3.45;1.50;;;;;;;0.64;72.38;97658.97;5071040;28;20081;-36
2023/03/06 06:35:02;;;;;;;5.55;2.65;;;;;;;0.70;71.84;97658.81;5080698;28;20072;-37
2023/03/06 06:37:29;;;;;;;5.32;2.63;;;;;;;0.63;71.55;97631.75;5069485;28;20182;-37
2023/03/06 06:39:55;;;;;;;3.90;2.40;;;;;;;0.87;71.22;97666.84;5069927;28;20131;-37
2023/03/06 06:42:21;;;;;;;6.13;2.10;;;;;;;0.98;70.86;97662.28;5071203;28;20135;-37
2023/03/06 06:44:47;;;;;;;3.58;2.10;;;;;;;1.02;70.36;97663.00;5086501;28;20032;-37
2023/03/06 06:47:13;;;;;;;5.45;2.28;;;;;;;1.04;70.26;97661.25;5063654;28;20039;-52
2023/03/06 06:49:39;;;;;;;2.63;1.90;;;;;;;1.14;70.07;97672.91;5079608;28;20419;-36
2023/03/06 06:52:05;;;;;;;4.13;2.50;;;;;;;1.09;70.25;97660.25;5070914;28;20102;-37
2023/03/06 06:54:32;;;;;;;4.88;2.50;;;;;;;1.30;70.28;97674.13;5052540;28;20078;-38
2023/03/06 06:56:58;;;;;;;4.15;2.15;;;;;;;1.28;70.30;97674.16;5070163;28;20048;-36
2023/03/06 06:59:24;;;;;;;4.18;2.30;;;;;;;1.17;70.13;97673.63;5069166;28;20119;-37
2023/03/06 07:01:51;;;;;;;3.85;2.05;;;;;;;1.15;70.24;97674.59;5078720;28;20139;-36
2023/03/06 07:04:17;;;;;;;3.40;2.20;;;;;;;1.02;69.54;97674.09;5050410;28;20074;-37
2023/03/06 07:06:43;;;;;;;3.35;1.80;;;;;;;1.18;69.93;97672.75;5067022;28;20590;-37
2023/03/06 07:09:10;;;;;;;2.97;1.88;;;;;;;1.24;69.70;97676.88;5069121;28;20044;-37
2023/03/06 07:11:37;;;;;;;5.25;2.20;;;;;;;1.11;69.12;97676.38;5066451;28;20063;-37
2023/03/06 07:14:03;;;;;;;3.65;2.47;;;;;;;1.08;69.24;97650.03;5067569;28;20040;-38
2023/03/06 07:16:29;;;;;;;7.85;2.28;;;;;;;1.26;69.21;97660.56;5068414;28;20066;-37
2023/03/06 07:18:55;;;;;;;3.38;1.75;;;;;;;1.39;68.31;97660.22;5069930;28;20507;-37
2023/03/06 07:21:21;;;;;;;2.92;1.55;;;;;;;1.33;68.31;97656.09;5068689;28;20044;-36
2023/03/06 07:23:47;;;;;;;4.50;1.70;;;;;;;1.26;67.84;97658.00;5068580;28;20040;-38
2023/03/06 07:26:13;;;;;;;5.00;2.13;;;;;;;1.41;68.08;97671.25;5066927;28;20531;-36
2023/03/06 07:28:39;;;;;;;2.80;1.92;;;;;;;1.31;67.75;97677.53;5067874;28;20277;-37
2023/03/06 07:31:10;;;;;;;2.63;1.50;;;;;;;1.21;67.59;97677.78;5085023;28;20101;-37
2023/03/06 07:33:37;;;;;;;3.63;2.20;;;;;;;1.04;68.17;97651.03;5064943;28;20432;-37
2023/03/06 07:36:07;;;;;;;5.30;2.10;;;;;;;1.36;67.91;97675.69;5069727;28;20032;-37
2023/03/06 07:38:33;;;;;;;2.85;1.70;;;;;;;1.39;67.84;97681.53;5063640;28;20551;-36
2023/03/06 07:40:59;;;;;;;4.40;2.03;;;;;;;1.37;67.84;97685.84;5066809;28;20045;-36
2023/03/06 07:43:25;;;;;;;7.75;2.05;;;;;;;1.46;67.91;97687.31;5048414;28;20036;-38
2023/03/06 07:45:59;;;;;;;5.45;1.77;;;;;;;1.39;67.57;97683.25;5067305;28;20043;-36
2023/03/06 07:48:26;;;;;;;5.53;1.98;;;;;;;0.95;67.75;97664.06;5049187;28;20507;-35
2023/03/06 07:51:00;;;;;;;4.85;1.90;;;;;;;1.12;68.11;97688.28;5066062;28;20047;-37
2023/03/06 07:53:26;;;;;;;3.35;1.83;;;;;;;1.28;67.54;97692.09;5066136;28;20049;-36
2023/03/06 07:55:52;;;;;;;3.10;1.80;;;;;;;1.34;67.21;97685.94;5065197;28;20527;-36
2023/03/06 07:58:18;;;;;;;3.08;1.73;;;;;;;1.22;66.67;97693.97;5066030;28;20515;-37
2023/03/06 08:00:44;;;;;;;3.53;1.83;;;;;;;1.47;66.24;97694.91;5066983;28;20052;-36
2023/03/06 08:03:11;;;;;;;1.90;0.90;;;;;;;1.67;65.70;97704.59;5062402;28;20127;-37
2023/03/06 08:05:37;;;;;;;2.22;1.23;;;;;;;1.53;64.31;97696.47;5068444;28;20131;-37
2023/03/06 08:08:03;;;;;;;2.55;1.60;;;;;;;1.69;64.61;97706.19;5064419;28;20543;-37
2023/03/06 08:10:29;;;;;;;3.75;1.70;;;;;;;1.54;64.40;97652.06;5055922;28;20056;-37
2023/03/06 08:12:55;;;;;;;4.78;1.42;;;;;;;2.09;63.97;97697.28;5078312;28;20048;-36
2023/03/06 08:15:21;;;;;;;5.32;1.30;;;;;;;2.00;63.62;97695.81;5034566;28;20048;-37
2023/03/06 08:17:48;;;;;;;1.83;1.00;;;;;;;1.88;63.14;97703.09;5076988;28;20044;-37
2023/03/06 08:20:15;;;;;;;2.55;1.50;;;;;;;1.73;63.37;97706.13;5049086;28;20044;-36
2023/03/06 08:22:41;;;;;;;3.45;1.60;;;;;;;1.66;63.88;97697.78;5062916;28;20882;-36
2023/03/06 08:25:08;;;;;;;4.47;1.75;;;;;;;1.77;64.16;97692.31;5046991;28;20048;-40
2023/03/06 08:27:34;;;;;;;3.30;1.10;;;;;;;1.89;63.90;97697.88;5066626;28;20117;-37
2023/03/06 08:30:00;;;;;;;6.63;1.70;;;;;;;1.91;64.23;97705.53;5066673;28;20051;-37
2023/03/06 08:32:26;;;;;;;1.60;1.02;;;;;;;1.80;64.29;97693.06;5060524;28;20040;-38
2023/03/06 08:34:52;;;;;;;6.05;1.17;;;;;;;1.86;64.28;97707.41;5067690;28;20061;-36
2023/03/06 08:37:19;;;;;;;2.47;1.38;;;;;;;2.21;63.66;97707.09;5066079;28;20131;-36
2023/03/06 08:39:44;;;;;;;4.40;1.25;;;;;;;2.36;63.05;97709.16;5065771;28;20504;-36
2023/03/06 08:42:10;;;;;;;3.92;1.40;;;;;;;2.04;62.03;97707.66;5064687;28;20048;-36
2023/03/06 08:44:36;;;;;;;1.80;0.80;;;;;;;1.94;62.20;97703.69;5065403;28;20040;-37
2023/03/06 08:47:03;;;;;;;2.13;1.08;;;;;;;1.83;62.40;97705.78;5065918;28;20139;-37
2023/03/06 08:49:29;;;;;;;2.20;0.85;;;;;;;1.93;62.06;97706.34;5063982;28;20083;-35
2023/03/06 08:51:54;;;;;;;3.28;1.45;;;;;;;2.39;61.38;97709.09;5067219;28;20075;-38
2023/03/06 08:54:20;;;;;;;1.55;1.08;;;;;;;3.13;61.03;97687.66;5063921;28;20045;-37
2023/03/06 08:56:46;;;;;;;2.50;1.30;;;;;;;4.09;59.96;97707.06;5067942;28;20567;-37
2023/03/06 08:59:12;;;;;;;2.13;1.00;;;;;;;4.76;59.13;97691.44;5064503;28;20097;-37
2023/03/06 09:01:39;;;;;;;2.72;1.23;;;;;;;4.23;58.64;97708.22;5076693;28;20067;-35
2023/03/06 09:04:10;;;;;;;3.08;1.67;;;;;;;3.71;59.57;97688.03;5046450;28;20949;-37
2023/03/06 09:06:40;;;;;;;2.58;1.55;;;;;;;3.77;58.99;97683.47;5067718;28;20051;-37
2023/03/06 09:09:06;;;;;;;2.05;1.17;;;;;;;3.77;59.06;97698.88;5063987;28;20045;-37
2023/03/06 09:11:32;;;;;;;2.70;1.33;;;;;;;3.93;59.02;97713.72;5063452;28;20044;-36
2023/03/06 09:13:58;;;;;;;3.08;1.45;;;;;;;4.16;59.35;97706.78;5065764;28;20071;-37
2023/03/06 09:16:24;;;;;;;5.35;1.67;;;;;;;4.56;58.87;97711.09;5064185;28;20878;-35
2023/03/06 09:18:52;;;;;;;4.85;2.15;;;;;;;5.05;58.39;97711.59;5048612;28;20416;-37
2023/03/06 09:21:21;;;;;;;3.90;1.70;;;;;;;5.49;57.63;97715.63;5065566;28;20052;-36
2023/03/06 09:23:47;;;;;;;5.63;1.70;;;;;;;5.99;57.34;97715.03;5045015;28;20041;-37
2023/03/06 09:26:14;;;;;;;6.28;2.10;;;;;;;7.13;56.45;97712.72;5063933;28;20033;-36
2023/03/06 09:28:40;;;;;;;3.40;1.48;;;;;;;7.19;55.11;97702.06;5060928;28;20048;-36
2023/03/06 09:31:10;;;;;;;2.83;1.77;;;;;;;7.11;54.86;97714.56;5048087;28;20048;-37
2023/03/06 09:33:37;;;;;;;1.92;1.40;;;;;;;6.59;53.18;97706.06;5049330;28;20037;-36
2023/03/06 09:36:03;;;;;;;2.03;1.20;;;;;;;6.13;53.07;97722.94;5068675;28;20067;-37
2023/03/06 09:38:29;;;;;;;3.15;1.33;;;;;;;5.90;53.14;97723.19;5049208;28;20048;-36
2023/03/06 09:41:01;;;;;;;2.03;1.05;;;;;;;5.82;53.15;97726.09;5067638;28;20037;-38
2023/03/06 09:43:38;;;;;;;2.63;1.48;;;;;;;6.32;53.47;97720.31;5064429;28;20499;-36
2023/03/06 09:46:28;;;;;;;3.28;1.40;;;;;;;6.75;52.25;97719.03;5066417;28;20040;-37
2023/03/06 09:49:14;;;;;;;4.20;1.63;;;;;;;7.84;51.57;97713.22;5025554;28;20626;-37
2023/03/06 09:51:50;;;;;;;3.20;1.20;;;;;;;8.14;49.54;97720.19;5066657;28;20591;-36
2023/03/06 09:54:16;;;;;;;3.72;1.10;;;;;;;6.38;50.32;97728.56;5048895;28;20516;-39
2023/03/06 09:56:49;;;;;;;5.20;1.35;;;;;;;5.53;52.49;97719.72;5066508;28;20037;-39
2023/03/06 09:59:23;;;;;;;1.35;1.20;;;;;;;5.15;53.41;97735.19;5066126;28;20036;-36
2023/03/06 10:02:19;;;;;;;3.15;1.40;;;;;;;4.38;55.05;97731.63;5049480;28;20040;-39
2023/03/06 10:04:50;;;;;;;6.22;1.40;;;;;;;3.91;56.08;97728.38;5021162;28;20539;-37
2023/03/06 10:07:23;;;;;;;3.85;1.88;;;;;;;4.56;56.59;97729.13;5065806;28;20040;-38
2023/03/06 10:10:06;;;;;;;1.67;1.05;;;;;;;4.59;56.42;97743.59;5066278;28;20048;-36
2023/03/06 10:12:35;;;;;;;4.40;1.40;;;;;;;4.69;56.46;97735.44;5067036;28;20531;-37
2023/03/06 10:15:15;;;;;;;3.45;1.23;;;;;;;4.38;57.01;97729.88;5047175;28;20052;-38
2023/03/06 10:17:42;;;;;;;1.83;1.20;;;;;;;4.39;57.25;97723.84;5058732;28;20043;-38
2023/03/06 10:20:17;;;;;;;3.75;1.77;;;;;;;5.32;57.24;97730.16;5051974;28;20048;-36
2023/03/06 10:23:23;;;;;;;3.88;1.60;;;;;;;6.12;55.40;97734.19;5060310;28;20608;-36
2023/03/06 10:26:01;;;;;;;1.70;1.05;;;;;;;5.64;55.06;97737.25;5072199;28;20036;-37
2023/03/06 10:28:53;;;;;;;4.57;1.90;;;;;;;5.22;55.88;97736.59;5059530;28;20484;-36
2023/03/06 10:31:23;;;;;;;2.92;1.50;;;;;;;5.12;55.29;97733.59;5067673;28;20049;-41
2023/03/06 10:33:57;;;;;;;2.10;0.98;;;;;;;3.79;56.22;97732.25;5061207;28;20040;-36
2023/03/06 10:36:26;;;;;;;3.92;1.88;;;;;;;2.97;57.83;97705.34;5060035;28;20040;-38
2023/03/06 10:38:53;;;;;;;4.88;1.83;;;;;;;2.79;59.20;97723.09;5049099;28;20040;-37
2023/03/06 10:41:30;;;;;;;2.42;1.35;;;;;;;2.32;59.75;97707.59;5066997;28;20055;-37
2023/03/06 10:43:59;;;;;;;4.43;1.55;;;;;;;2.19;59.74;97746.50;5067955;28;20131;-38
2023/03/06 10:46:50;;;;;;;3.07;1.50;;;;;;;2.55;60.20;97737.63;5068557;28;20502;-37
2023/03/06 10:49:31;;;;;;;3.40;1.17;;;;;;;5.02;55.84;97735.72;5066511;28;20044;-36
2023/03/06 10:52:13;;;;;;;3.00;1.20;;;;;;;5.92;52.82;97727.34;5068652;28;20047;-36
2023/03/06 10:54:42;;;;;;;3.15;1.20;;;;;;;5.49;52.68;97712.19;5085742;28;20044;-36
2023/03/06 10:57:27;;;;;;;1.80;1.20;;;;;;;5.38;51.86;97733.28;5069063;28;20040;-36
2023/03/06 11:00:05;;;;;;;5.40;0.98;;;;;;;4.13;53.26;97706.06;5068143;28;20492;-36
2023/03/06 11:02:37;;;;;;;3.92;1.40;;;;;;;3.46;54.84;97730.94;5065530;28;20083;-38
2023/03/06 11:05:04;;;;;;;3.20;1.17;;;;;;;3.10;56.01;97733.97;5048409;28;20504;-40
2023/03/06 11:07:31;;;;;;;2.97;1.15;;;;;;;3.61;56.17;97743.25;5056879;28;20044;-37
2023/03/06 11:09:59;;;;;;;4.10;1.20;;;;;;;4.14;54.65;97733.44;5068157;28;20048;-37
2023/03/06 11:12:36;;;;;;;3.03;1.27;;;;;;;5.50;53.32;97734.44;5067082;28;20496;-37
2023/03/06 11:15:06;;;;;;;2.60;1.40;;;;;;;7.53;49.05;97739.91;5070065;28;20067;-37
2023/03/06 11:17:36;;;;;;;3.38;0.98;;;;;;;7.73;46.40;97731.09;5065516;28;20045;-36
2023/03/06 11:20:28;;;;;;;3.58;1.50;;;;;;;7.58;46.35;97740.50;5055833;28;20526;-38
2023/03/06 11:23:12;;;;;;;3.08;1.77;;;;;;;7.70;46.07;97736.41;5060440;28;20052;-37
2023/03/06 11:25:47;;;;;;;2.65;0.90;;;;;;;7.19;45.42;97740.81;5068573;28;20513;-38
2023/03/06 11:28:57;;;;;;;1.67;0.80;;;;;;;6.59;46.49;97733.63;5089788;28;20186;-36
2023/03/06 11:31:52;;;;;;;1.98;0.88;;;;;;;7.39;45.45;97713.94;5063994;28;20131;-38
2023/03/06 11:34:26;;;;;;;3.63;1.38;;;;;;;8.05;44.49;97735.34;5048759;28;20060;-37
2023/03/06 11:37:10;;;;;;;2.90;1.40;;;;;;;8.24;44.13;97729.13;5068091;28;20491;-39
2023/03/06 11:40:21;;;;;;;3.03;1.02;;;;;;;9.44;43.22;97738.44;5065726;28;20040;-36
2023/03/06 11:43:18;;;;;;;4.80;1.10;;;;;;;10.29;41.11;97740.09;5056651;28;20053;-37
2023/03/06 11:45:49;;;;;;;1.77;0.90;;;;;;;8.55;41.80;97739.44;5050696;28;20139;-36